createdAt,value
2023-08-15T00:00:32.487Z,93.64
2023-08-15T00:02:59.330Z,93.41
2023-08-15T00:05:25.978Z,94.02
2023-08-15T00:07:52.575Z,94.09
2023-08-15T00:10:19.166Z,94.04
2023-08-15T00:12:45.788Z,93.94
2023-08-15T00:15:12.431Z,94.15
2023-08-15T00:17:39.111Z,94.21
2023-08-15T00:20:07.096Z,94.53
2023-08-15T00:22:33.690Z,94.28
2023-08-15T00:25:00.332Z,94.61
2023-08-15T00:27:26.949Z,94.36
2023-08-15T00:29:53.549Z,94.55
2023-08-15T00:32:20.152Z,94.46
2023-08-15T00:34:46.718Z,94.69
2023-08-15T00:37:13.312Z,94.77
2023-08-15T00:39:42.089Z,94.41
2023-08-15T00:42:08.925Z,94.59
2023-08-15T00:44:35.557Z,94.85
2023-08-15T00:47:02.103Z,94.47
2023-08-15T00:49:28.930Z,95.01
2023-08-15T00:51:55.544Z,94.76
2023-08-15T00:54:22.107Z,94.93
2023-08-15T00:56:48.677Z,95.08
2023-08-15T00:59:15.450Z,94.96
2023-08-15T01:01:42.019Z,95.04
2023-08-15T01:04:08.654Z,95.32
2023-08-15T01:06:35.261Z,95.08
2023-08-15T01:09:01.857Z,95.32
2023-08-15T01:11:31.314Z,95.31
2023-08-15T01:13:59.786Z,95.40
2023-08-15T01:16:27.219Z,95.52
2023-08-15T01:18:58.231Z,95.60
2023-08-15T01:21:29.324Z,95.96
2023-08-15T01:23:55.969Z,95.77
2023-08-15T01:26:22.588Z,95.69
2023-08-15T01:28:49.176Z,96.02
2023-08-15T01:31:21.581Z,96.22
2023-08-15T01:34:06.019Z,96.25
2023-08-15T01:36:39.838Z,96.40
2023-08-15T01:39:06.992Z,96.33
2023-08-15T01:41:34.195Z,96.38
2023-08-15T01:44:01.294Z,96.47
2023-08-15T01:46:27.879Z,96.56
2023-08-15T01:48:54.475Z,96.72
2023-08-15T01:51:21.056Z,96.78
2023-08-15T01:53:47.657Z,96.44
2023-08-15T01:56:14.394Z,96.51
2023-08-15T01:58:41.014Z,96.28
2023-08-15T02:01:07.636Z,96.56
2023-08-15T02:03:34.232Z,96.59
2023-08-15T02:06:00.932Z,97.00
2023-08-15T02:08:27.535Z,96.93
2023-08-15T02:10:54.220Z,96.83
2023-08-15T02:13:20.972Z,96.98
2023-08-15T02:15:47.582Z,97.33
2023-08-15T02:18:14.271Z,97.21
2023-08-15T02:20:41.027Z,97.22
2023-08-15T02:23:07.642Z,97.48
2023-08-15T02:25:34.209Z,97.11
2023-08-15T02:28:00.852Z,97.35
2023-08-15T02:30:27.444Z,97.24
2023-08-15T02:32:54.096Z,97.44
2023-08-15T02:35:20.721Z,97.70
2023-08-15T02:37:47.290Z,97.63
2023-08-15T02:40:13.974Z,97.66
2023-08-15T02:42:40.574Z,97.89
2023-08-15T02:45:07.750Z,98.14
2023-08-15T02:47:34.377Z,98.22
2023-08-15T02:50:01.055Z,98.50
2023-08-15T02:52:27.710Z,98.49
2023-08-15T02:54:54.292Z,98.58
2023-08-15T02:57:21.127Z,98.74
2023-08-15T02:59:47.901Z,98.58
2023-08-15T03:02:14.509Z,98.55
2023-08-15T03:04:41.157Z,98.60
2023-08-15T03:07:07.757Z,98.49
2023-08-15T03:09:34.342Z,98.88
2023-08-15T03:12:00.935Z,99.05
2023-08-15T03:14:30.589Z,98.70
2023-08-15T03:16:57.298Z,99.12
2023-08-15T03:19:23.876Z,98.82
2023-08-15T03:21:50.450Z,98.93
2023-08-15T03:24:17.090Z,99.14
2023-08-15T03:26:43.677Z,99.00
2023-08-15T03:29:10.273Z,98.90
2023-08-15T03:31:36.883Z,99.39
2023-08-15T03:34:03.547Z,99.86
2023-08-15T03:36:30.148Z,99.35
2023-08-15T03:38:56.770Z,99.37
2023-08-15T03:41:23.390Z,99.32
2023-08-15T03:43:50.039Z,99.66
2023-08-15T03:46:16.674Z,99.25
2023-08-15T03:48:43.312Z,99.38
2023-08-15T03:51:12.807Z,99.58
2023-08-15T03:53:39.639Z,99.32
2023-08-15T03:56:06.248Z,99.33
2023-08-15T03:58:32.824Z,99.45
2023-08-15T04:00:59.425Z,99.67
2023-08-15T04:03:26.125Z,99.51
2023-08-15T04:05:52.678Z,99.83
2023-08-15T04:08:19.246Z,100.00
2023-08-15T04:10:46.667Z,100.00
2023-08-15T04:13:13.429Z,100.00
2023-08-15T04:15:40.123Z,100.00
2023-08-15T04:18:08.287Z,100.00
2023-08-15T04:20:41.669Z,100.00
2023-08-15T04:23:08.417Z,100.00
2023-08-15T04:25:35.400Z,100.00
2023-08-15T04:28:02.360Z,100.00
2023-08-15T04:30:30.115Z,100.00
2023-08-15T04:32:56.884Z,100.00
2023-08-15T04:35:23.533Z,100.00
2023-08-15T04:37:50.186Z,100.00
2023-08-15T04:40:21.551Z,100.00
2023-08-15T04:42:48.161Z,100.00
2023-08-15T04:45:14.800Z,100.00
2023-08-15T04:47:41.416Z,100.00
2023-08-15T04:50:08.571Z,100.00
2023-08-15T04:52:35.184Z,100.00
2023-08-15T04:55:01.761Z,100.00
2023-08-15T04:57:28.351Z,100.00
2023-08-15T04:59:54.925Z,100.00
2023-08-15T05:02:21.517Z,100.00
2023-08-15T05:04:48.100Z,100.00
2023-08-15T05:07:14.677Z,100.00
2023-08-15T05:09:41.368Z,100.00
2023-08-15T05:12:08.597Z,100.00
2023-08-15T05:14:35.196Z,100.00
2023-08-15T05:17:01.772Z,100.00
2023-08-15T05:19:28.380Z,100.00
2023-08-15T05:21:54.976Z,100.00
2023-08-15T05:24:21.664Z,100.00
2023-08-15T05:26:48.248Z,100.00
2023-08-15T05:29:14.834Z,100.00
2023-08-15T05:31:41.489Z,100.00
2023-08-15T05:34:10.176Z,100.00
2023-08-15T05:36:37.926Z,100.00
2023-08-15T05:39:04.543Z,100.00
2023-08-15T05:41:31.900Z,100.00
2023-08-15T05:43:58.508Z,99.41
2023-08-15T05:46:25.106Z,98.73
2023-08-15T05:48:51.730Z,98.67
2023-08-15T05:51:18.326Z,98.43
2023-08-15T05:53:44.898Z,98.14
2023-08-15T05:56:11.513Z,97.96
2023-08-15T05:58:38.093Z,97.57
2023-08-15T06:01:04.719Z,97.35
2023-08-15T06:03:49.620Z,97.29
2023-08-15T06:06:17.888Z,97.08
2023-08-15T06:08:44.448Z,97.33
2023-08-15T06:11:11.000Z,97.24
2023-08-15T06:13:37.610Z,97.04
2023-08-15T06:16:04.332Z,97.54
2023-08-15T06:18:30.925Z,97.31
2023-08-15T06:20:57.667Z,97.44
2023-08-15T06:23:24.265Z,97.67
2023-08-15T06:25:50.886Z,97.58
2023-08-15T06:28:17.506Z,97.40
2023-08-15T06:30:44.060Z,97.02
2023-08-15T06:33:10.729Z,97.11
2023-08-15T06:35:37.318Z,96.53
2023-08-15T06:38:04.072Z,96.40
2023-08-15T06:40:31.701Z,95.90
2023-08-15T06:42:58.312Z,95.70
2023-08-15T06:45:24.945Z,95.37
2023-08-15T06:47:51.586Z,94.77
2023-08-15T06:50:18.704Z,94.81
2023-08-15T06:52:45.324Z,94.72
2023-08-15T06:55:11.850Z,93.58
2023-08-15T06:57:38.428Z,93.11
2023-08-15T07:00:05.636Z,93.17
2023-08-15T07:02:32.345Z,93.02
2023-08-15T07:04:59.005Z,92.87
2023-08-15T07:07:25.607Z,93.09
2023-08-15T07:09:52.277Z,93.55
2023-08-15T07:12:19.065Z,93.75
2023-08-15T07:14:46.307Z,93.64
2023-08-15T07:17:12.983Z,93.50
2023-08-15T07:19:39.599Z,93.19
2023-08-15T07:22:06.271Z,93.23
2023-08-15T07:24:32.897Z,92.71
2023-08-15T07:26:59.530Z,92.96
2023-08-15T07:29:26.100Z,92.95
2023-08-15T07:31:52.729Z,92.96
2023-08-15T07:34:19.442Z,93.22
2023-08-15T07:36:46.114Z,93.67
2023-08-15T07:39:12.704Z,93.66
2023-08-15T07:41:40.713Z,93.43
2023-08-15T07:44:07.310Z,93.31
2023-08-15T07:46:33.891Z,93.33
2023-08-15T07:49:01.191Z,93.67
2023-08-15T07:51:27.950Z,94.19
2023-08-15T07:53:54.564Z,94.25
2023-08-15T07:56:21.174Z,94.71
2023-08-15T07:58:47.770Z,94.79
2023-08-15T08:01:14.424Z,95.09
2023-08-15T08:03:41.077Z,95.42
2023-08-15T08:06:12.389Z,95.70
2023-08-15T08:08:47.876Z,96.33
2023-08-15T08:11:14.695Z,97.41
2023-08-15T08:13:41.277Z,97.43
2023-08-15T08:16:07.937Z,97.99
2023-08-15T08:18:34.598Z,98.61
2023-08-15T08:21:01.886Z,98.89
2023-08-15T08:23:28.486Z,99.52
2023-08-15T08:25:55.104Z,100.00
2023-08-15T08:28:21.684Z,100.00
2023-08-15T08:30:48.460Z,100.00
2023-08-15T08:33:15.037Z,100.00
2023-08-15T08:35:41.620Z,100.00
2023-08-15T08:38:08.309Z,100.00
2023-08-15T08:40:34.914Z,100.00
2023-08-15T08:43:01.645Z,100.00
2023-08-15T08:45:28.428Z,100.00
2023-08-15T08:47:55.104Z,100.00
2023-08-15T08:50:21.783Z,100.00
2023-08-15T08:52:48.341Z,100.00
2023-08-15T08:55:15.006Z,100.00
2023-08-15T08:57:41.631Z,100.00
2023-08-15T09:00:08.891Z,100.00
2023-08-15T09:02:35.627Z,100.00
2023-08-15T09:05:04.998Z,100.00
2023-08-15T09:07:32.762Z,100.00
2023-08-15T09:09:59.385Z,100.00
2023-08-15T09:12:41.490Z,100.00
2023-08-15T09:15:08.754Z,100.00
2023-08-15T09:17:35.462Z,100.00
2023-08-15T09:20:14.706Z,100.00
2023-08-15T09:22:47.431Z,100.00
2023-08-15T09:25:14.675Z,100.00
2023-08-15T09:27:41.292Z,100.00
2023-08-15T09:30:11.930Z,100.00
2023-08-15T09:32:40.077Z,100.00
2023-08-15T09:35:08.588Z,100.00
2023-08-15T09:37:35.252Z,100.00
2023-08-15T09:40:01.963Z,100.00
2023-08-15T09:42:31.441Z,100.00
2023-08-15T09:44:58.023Z,100.00
2023-08-15T09:47:24.869Z,97.76
2023-08-15T09:49:52.827Z,97.07
2023-08-15T09:52:19.449Z,95.87
2023-08-15T09:54:46.021Z,96.18
2023-08-15T09:57:12.637Z,94.41
2023-08-15T09:59:39.302Z,92.58
2023-08-15T10:02:05.996Z,90.25
2023-08-15T10:04:32.880Z,90.46
2023-08-15T10:06:59.453Z,90.82
2023-08-15T10:09:26.746Z,92.86
2023-08-15T10:11:53.388Z,92.86
2023-08-15T10:14:20.026Z,91.97
2023-08-15T10:16:46.692Z,92.17
2023-08-15T10:19:15.487Z,91.66
2023-08-15T10:21:52.500Z,88.47
2023-08-15T10:24:19.317Z,87.06
2023-08-15T10:26:46.619Z,86.19
2023-08-15T10:29:13.624Z,86.82
2023-08-15T10:31:41.266Z,87.26
2023-08-15T10:34:11.475Z,88.12
2023-08-15T10:36:41.258Z,88.91
2023-08-15T10:39:08.099Z,88.80
2023-08-15T10:41:35.446Z,89.35
2023-08-15T10:44:03.037Z,88.90
2023-08-15T10:46:30.683Z,88.38
2023-08-15T10:49:12.441Z,88.88
2023-08-15T10:51:40.209Z,88.97
2023-08-15T10:54:08.995Z,88.90
2023-08-15T10:56:39.297Z,89.25
2023-08-15T10:59:13.119Z,87.69
2023-08-15T11:01:41.794Z,86.84
2023-08-15T11:04:10.985Z,86.01
2023-08-15T11:07:04.004Z,86.87
2023-08-15T11:09:30.698Z,86.77
2023-08-15T11:12:07.771Z,87.03
2023-08-15T11:14:34.385Z,86.77
2023-08-15T11:17:00.994Z,85.35
2023-08-15T11:19:27.775Z,85.13
2023-08-15T11:21:54.393Z,85.56
2023-08-15T11:24:21.002Z,86.12
2023-08-15T11:26:47.649Z,85.78
2023-08-15T11:29:15.232Z,85.01
2023-08-15T11:31:42.472Z,84.41
2023-08-15T11:34:09.521Z,83.44
2023-08-15T11:36:37.075Z,83.42
2023-08-15T11:39:03.861Z,84.76
2023-08-15T11:41:32.034Z,85.63
2023-08-15T11:44:00.002Z,87.19
2023-08-15T11:46:31.107Z,88.02
2023-08-15T11:49:03.354Z,88.89
2023-08-15T11:51:30.050Z,89.81
2023-08-15T11:53:56.624Z,91.01
2023-08-15T11:56:23.370Z,92.74
2023-08-15T11:58:50.046Z,93.39
2023-08-15T12:01:16.824Z,93.44
2023-08-15T12:03:43.508Z,92.25
2023-08-15T12:06:11.151Z,89.34
2023-08-15T12:08:39.427Z,88.01
2023-08-15T12:11:07.845Z,84.57
2023-08-15T12:13:41.441Z,83.38
2023-08-15T12:16:09.609Z,81.79
2023-08-15T12:18:36.370Z,80.71
2023-08-15T12:21:03.325Z,81.63
2023-08-15T12:23:30.068Z,79.93
2023-08-15T12:25:56.840Z,79.14
2023-08-15T12:28:23.545Z,77.69
2023-08-15T12:30:50.371Z,76.36
2023-08-15T12:33:27.562Z,76.47
2023-08-15T12:36:03.742Z,74.81
2023-08-15T12:38:30.453Z,73.48
2023-08-15T12:40:57.062Z,72.34
2023-08-15T12:43:23.787Z,72.09
2023-08-15T12:45:50.538Z,70.93
2023-08-15T12:48:17.316Z,68.94
2023-08-15T12:50:43.904Z,69.22
2023-08-15T12:53:10.577Z,67.72
2023-08-15T12:55:37.250Z,68.05
2023-08-15T12:58:04.241Z,68.01
2023-08-15T13:00:31.163Z,66.61
2023-08-15T13:02:58.087Z,65.31
2023-08-15T13:05:24.808Z,65.52
2023-08-15T13:07:51.481Z,64.33
2023-08-15T13:10:18.144Z,64.80
2023-08-15T13:12:44.784Z,66.27
2023-08-15T13:15:11.492Z,65.24
2023-08-15T13:17:38.181Z,66.70
2023-08-15T13:20:05.270Z,64.58
2023-08-15T13:22:31.839Z,63.66
2023-08-15T13:24:58.474Z,66.00
2023-08-15T13:27:25.144Z,65.14
2023-08-15T13:29:51.912Z,64.69
2023-08-15T13:32:18.568Z,62.27
2023-08-15T13:34:45.198Z,63.30
2023-08-15T13:37:11.836Z,61.85
2023-08-15T13:39:38.448Z,60.18
2023-08-15T13:42:05.231Z,60.31
2023-08-15T13:44:31.840Z,60.77
2023-08-15T13:46:58.444Z,61.21
2023-08-15T13:49:25.116Z,61.01
2023-08-15T13:51:51.732Z,62.29
2023-08-15T13:54:18.314Z,61.65
2023-08-15T13:56:44.872Z,60.86
2023-08-15T13:59:11.434Z,63.19
2023-08-15T14:01:38.081Z,63.58
2023-08-15T14:04:04.997Z,62.42
2023-08-15T14:06:31.594Z,61.90
2023-08-15T14:08:58.374Z,60.49
2023-08-15T14:11:24.967Z,61.93
2023-08-15T14:13:51.597Z,61.81
2023-08-15T14:16:18.261Z,59.61
2023-08-15T14:18:45.054Z,57.67
2023-08-15T14:21:14.428Z,56.27
2023-08-15T14:23:42.342Z,53.40
2023-08-15T14:26:08.946Z,50.22
2023-08-15T14:28:35.587Z,46.16
2023-08-15T14:31:05.917Z,45.50
2023-08-15T14:33:32.653Z,43.98
2023-08-15T14:35:59.290Z,43.63
2023-08-15T14:38:25.865Z,43.18
2023-08-15T14:40:52.970Z,41.41
2023-08-15T14:43:19.519Z,42.64
2023-08-15T14:45:46.118Z,47.19
2023-08-15T14:48:12.721Z,49.73
2023-08-15T14:50:39.342Z,52.07
2023-08-15T14:53:05.996Z,54.94
2023-08-15T14:55:33.190Z,57.52
2023-08-15T14:57:59.941Z,59.02
2023-08-15T15:00:26.627Z,59.21
2023-08-15T15:02:53.267Z,60.55
2023-08-15T15:05:19.932Z,61.96
2023-08-15T15:07:46.483Z,63.04
2023-08-15T15:10:13.083Z,62.04
2023-08-15T15:12:40.069Z,62.39
2023-08-15T15:15:07.596Z,63.33
2023-08-15T15:17:34.205Z,63.41
2023-08-15T15:20:00.968Z,63.81
2023-08-15T15:22:27.614Z,63.31
2023-08-15T15:24:54.256Z,63.03
2023-08-15T15:27:20.854Z,63.53
2023-08-15T15:29:47.419Z,63.70
2023-08-15T15:32:14.007Z,64.52
2023-08-15T15:34:40.609Z,67.04
2023-08-15T15:37:07.263Z,66.60
2023-08-15T15:39:33.932Z,67.63
2023-08-15T15:42:00.639Z,68.35
2023-08-15T15:44:27.967Z,68.99
2023-08-15T15:46:55.809Z,68.94
2023-08-15T15:49:23.144Z,69.10
2023-08-15T15:51:49.714Z,68.94
2023-08-15T15:54:16.273Z,68.87
2023-08-15T15:56:42.936Z,69.65
2023-08-15T15:59:09.631Z,70.39
2023-08-15T16:01:36.277Z,68.94
2023-08-15T16:04:03.365Z,66.79
2023-08-15T16:06:29.993Z,67.54
2023-08-15T16:08:56.590Z,68.06
2023-08-15T16:11:23.199Z,69.51
2023-08-15T16:13:49.865Z,70.19
2023-08-15T16:16:16.482Z,71.17
2023-08-15T16:18:43.714Z,72.23
2023-08-15T16:21:10.272Z,72.26
2023-08-15T16:23:36.938Z,72.41
2023-08-15T16:26:03.544Z,72.76
2023-08-15T16:28:30.134Z,73.06
2023-08-15T16:30:56.750Z,73.54
2023-08-15T16:33:23.331Z,73.71
2023-08-15T16:35:49.922Z,74.14
2023-08-15T16:38:16.559Z,73.97
2023-08-15T16:40:43.327Z,74.76
2023-08-15T16:43:10.562Z,74.88
2023-08-15T16:45:38.296Z,75.15
2023-08-15T16:48:05.179Z,75.73
2023-08-15T16:50:31.885Z,76.04
2023-08-15T16:53:00.642Z,76.22
2023-08-15T16:55:27.822Z,76.57
2023-08-15T16:57:54.422Z,77.03
2023-08-15T17:00:21.044Z,76.96
2023-08-15T17:02:47.782Z,77.23
2023-08-15T17:05:14.587Z,77.20
2023-08-15T17:07:41.186Z,77.52
2023-08-15T17:10:08.159Z,77.64
2023-08-15T17:12:34.816Z,78.17
2023-08-15T17:15:01.501Z,78.29
2023-08-15T17:17:28.094Z,78.46
2023-08-15T17:19:54.844Z,78.64
2023-08-15T17:22:21.622Z,78.52
2023-08-15T17:24:48.443Z,78.75
2023-08-15T17:27:15.122Z,79.32
2023-08-15T17:29:41.746Z,79.45
2023-08-15T17:32:08.394Z,79.45
2023-08-15T17:34:35.503Z,79.72
2023-08-15T17:37:02.501Z,79.97
2023-08-15T17:39:29.238Z,79.04
2023-08-15T17:41:56.269Z,79.09
2023-08-15T17:44:23.282Z,79.76
2023-08-15T17:46:50.423Z,79.53
2023-08-15T17:49:17.605Z,79.74
2023-08-15T17:51:44.431Z,79.92
2023-08-15T17:54:11.021Z,80.41
2023-08-15T17:56:37.603Z,80.35
2023-08-15T17:59:04.301Z,80.29
2023-08-15T18:01:30.938Z,79.97
2023-08-15T18:03:57.724Z,79.63
2023-08-15T18:06:24.397Z,79.35
2023-08-15T18:08:51.168Z,79.62
2023-08-15T18:11:17.762Z,79.85
2023-08-15T18:13:44.338Z,80.11
2023-08-15T18:16:11.033Z,80.56
2023-08-15T18:18:37.669Z,80.66
2023-08-15T18:21:04.334Z,80.55
2023-08-15T18:23:30.949Z,80.88
2023-08-15T18:25:57.647Z,80.84
2023-08-15T18:28:24.300Z,81.19
2023-08-15T18:30:50.872Z,81.75
2023-08-15T18:33:17.597Z,81.21
2023-08-15T18:35:44.256Z,81.35
2023-08-15T18:38:10.853Z,81.06
2023-08-15T18:40:39.401Z,80.37
2023-08-15T18:43:08.188Z,79.74
2023-08-15T18:45:34.775Z,79.91
2023-08-15T18:48:01.417Z,79.62
2023-08-15T18:50:28.109Z,77.83
2023-08-15T18:52:54.660Z,76.11
2023-08-15T18:55:21.246Z,75.57
2023-08-15T18:57:47.877Z,75.92
2023-08-15T19:00:17.163Z,75.64
2023-08-15T19:02:45.010Z,74.29
2023-08-15T19:05:11.743Z,74.57
2023-08-15T19:07:38.314Z,75.09
2023-08-15T19:10:05.602Z,74.94
2023-08-15T19:12:32.207Z,75.21
2023-08-15T19:14:58.778Z,74.44
2023-08-15T19:17:25.362Z,74.55
2023-08-15T19:19:51.944Z,74.69
2023-08-15T19:22:18.526Z,74.04
2023-08-15T19:24:45.656Z,74.51
2023-08-15T19:27:12.431Z,75.07
2023-08-15T19:29:39.042Z,75.03
2023-08-15T19:32:05.945Z,74.92
2023-08-15T19:34:32.548Z,75.59
2023-08-15T19:36:59.212Z,75.34
2023-08-15T19:39:25.747Z,75.08
2023-08-15T19:41:52.424Z,75.29
2023-08-15T19:44:19.154Z,75.64
2023-08-15T19:46:45.757Z,75.52
2023-08-15T19:49:12.342Z,75.83
2023-08-15T19:51:38.912Z,76.17
2023-08-15T19:54:05.752Z,76.56
2023-08-15T19:56:32.379Z,76.66
2023-08-15T19:58:58.912Z,76.84
2023-08-15T20:01:25.648Z,76.62
2023-08-15T20:03:52.338Z,77.07
2023-08-15T20:06:18.943Z,77.28
2023-08-15T20:08:45.553Z,77.45
2023-08-15T20:11:12.166Z,77.58
2023-08-15T20:13:38.874Z,77.51
2023-08-15T20:16:05.537Z,77.44
2023-08-15T20:18:32.190Z,77.46
2023-08-15T20:20:59.264Z,77.85
2023-08-15T20:23:25.919Z,78.28
2023-08-15T20:25:52.611Z,78.48
2023-08-15T20:28:19.277Z,78.32
2023-08-15T20:30:46.073Z,78.30
2023-08-15T20:33:12.705Z,78.72
2023-08-15T20:35:39.370Z,79.06
2023-08-15T20:38:06.049Z,79.32
2023-08-15T20:40:32.865Z,79.21
2023-08-15T20:42:59.564Z,79.52
2023-08-15T20:45:26.461Z,79.76
2023-08-15T20:47:53.165Z,79.60
2023-08-15T20:50:21.096Z,80.10
2023-08-15T20:52:47.676Z,80.55
2023-08-15T20:55:14.306Z,80.56
2023-08-15T20:57:41.433Z,80.84
2023-08-15T21:00:08.541Z,80.66
2023-08-15T21:02:35.261Z,80.75
2023-08-15T21:05:02.895Z,80.81
2023-08-15T21:07:29.551Z,80.86
2023-08-15T21:09:56.270Z,81.50
2023-08-15T21:12:23.173Z,81.45
2023-08-15T21:14:50.028Z,81.62
2023-08-15T21:17:16.824Z,81.90
2023-08-15T21:19:43.477Z,81.58
2023-08-15T21:22:10.074Z,81.15
2023-08-15T21:24:36.739Z,81.25
2023-08-15T21:27:03.418Z,81.71
2023-08-15T21:29:30.026Z,81.64
2023-08-15T21:31:56.611Z,81.87
2023-08-15T21:34:23.274Z,81.55
2023-08-15T21:36:49.888Z,81.64
2023-08-15T21:39:16.581Z,81.57
2023-08-15T21:41:43.261Z,81.46
2023-08-15T21:44:09.846Z,81.85
2023-08-15T21:46:36.539Z,81.48
2023-08-15T21:49:03.352Z,81.93
2023-08-15T21:51:29.937Z,81.66
2023-08-15T21:53:56.609Z,82.10
2023-08-15T21:56:23.209Z,82.45
2023-08-15T21:58:49.784Z,82.35
2023-08-15T22:01:16.414Z,82.90
2023-08-15T22:03:43.177Z,83.01
2023-08-15T22:06:09.828Z,83.19
2023-08-15T22:08:36.428Z,83.49
2023-08-15T22:11:03.025Z,83.49
2023-08-15T22:13:29.634Z,83.65
2023-08-15T22:15:56.256Z,83.56
2023-08-15T22:18:23.273Z,83.67
2023-08-15T22:20:50.214Z,84.06
2023-08-15T22:23:16.937Z,84.38
2023-08-15T22:25:47.033Z,84.62
2023-08-15T22:28:13.815Z,84.35
2023-08-15T22:30:40.401Z,84.51
2023-08-15T22:33:07.011Z,84.53
2023-08-15T22:35:41.295Z,84.83
2023-08-15T22:38:08.102Z,85.02
2023-08-15T22:40:35.100Z,85.18
2023-08-15T22:43:01.717Z,84.95
2023-08-15T22:45:28.496Z,85.37
2023-08-15T22:47:55.230Z,85.56
2023-08-15T22:50:21.802Z,85.65
2023-08-15T22:52:48.428Z,85.67
2023-08-15T22:55:15.051Z,85.85
2023-08-15T22:57:41.652Z,85.97
2023-08-15T23:00:08.837Z,85.98
2023-08-15T23:02:35.567Z,86.02
2023-08-15T23:05:02.161Z,86.60
2023-08-15T23:07:28.745Z,86.58
2023-08-15T23:09:55.331Z,86.99
2023-08-15T23:12:21.891Z,86.96
2023-08-15T23:14:48.520Z,87.40
2023-08-15T23:17:15.134Z,87.50
2023-08-15T23:19:41.739Z,87.80
2023-08-15T23:22:08.290Z,87.84
2023-08-15T23:24:34.881Z,88.22
2023-08-15T23:27:01.592Z,88.24
2023-08-15T23:29:28.370Z,88.21
2023-08-15T23:31:55.076Z,88.42
2023-08-15T23:34:21.624Z,88.07
2023-08-15T23:36:48.212Z,88.25
2023-08-15T23:39:14.871Z,88.48
2023-08-15T23:41:41.408Z,89.04
2023-08-15T23:44:08.014Z,88.82
2023-08-15T23:46:34.667Z,89.10
2023-08-15T23:49:01.283Z,88.94
2023-08-15T23:51:27.883Z,88.97
2023-08-15T23:53:54.500Z,89.18
2023-08-15T23:56:21.109Z,89.62
2023-08-15T23:58:47.711Z,89.56
